sensor_id;sensor_type;location;lat;lon;timestamp;pressure;altitude;pressure_sealevel;temperature;humidity
11017;BME280;54687;50.800;6.772;2023-10-13T00:02:09;92246.09;;;-144.06;26.80
11017;BME280;54687;50.800;6.772;2023-10-13T00:04:36;92224.94;;;-144.06;26.80
11017;BME280;54687;50.800;6.772;2023-10-13T00:07:03;92178.41;;;-144.06;26.60
11017;BME280;54687;50.800;6.772;2023-10-13T00:09:34;92203.81;;;-144.06;26.90
11017;BME280;54687;50.800;6.772;2023-10-13T00:12:03;92216.50;;;-144.06;26.71
11017;BME280;54687;50.800;6.772;2023-10-13T00:14:31;92246.09;;;-144.06;26.75
11017;BME280;54687;50.800;6.772;2023-10-13T00:17:00;92244.00;;;-144.06;26.85
11017;BME280;54687;50.800;6.772;2023-10-13T00:19:30;92212.25;;;-144.06;26.86
11017;BME280;54687;50.800;6.772;2023-10-13T00:22:08;92279.94;;;-144.06;26.98
11017;BME280;54687;50.800;6.772;2023-10-13T00:24:43;92212.25;;;-144.06;26.90
11017;BME280;54687;50.800;6.772;2023-10-13T00:27:12;92275.72;;;-144.06;26.88
11017;BME280;54687;50.800;6.772;2023-10-13T00:29:56;92235.53;;;-144.06;26.72
11017;BME280;54687;50.800;6.772;2023-10-13T00:32:50;92246.09;;;-144.06;26.86
11017;BME280;54687;50.800;6.772;2023-10-13T00:35:21;92351.88;;;-144.06;26.87
11017;BME280;54687;50.800;6.772;2023-10-13T00:37:53;92279.94;;;-144.06;27.08
11017;BME280;54687;50.800;6.772;2023-10-13T00:40:24;92263.03;;;-144.06;26.82
11017;BME280;54687;50.800;6.772;2023-10-13T00:43:06;92263.03;;;-144.06;26.89
11017;BME280;54687;50.800;6.772;2023-10-13T00:45:53;92256.69;;;-144.06;26.81
11017;BME280;54687;50.800;6.772;2023-10-13T00:48:28;92301.09;;;-144.06;26.88
11017;BME280;54687;50.800;6.772;2023-10-13T00:50:57;92296.88;;;-144.06;26.93
11017;BME280;54687;50.800;6.772;2023-10-13T00:53:25;92299.00;;;-144.06;26.94
11017;BME280;54687;50.800;6.772;2023-10-13T00:55:52;92292.66;;;-144.06;27.06
11017;BME280;54687;50.800;6.772;2023-10-13T00:58:22;92318.03;;;-144.06;26.98
11017;BME280;54687;50.800;6.772;2023-10-13T01:00:49;92292.66;;;-144.06;27.13
11017;BME280;54687;50.800;6.772;2023-10-13T01:03:22;92303.22;;;-144.06;27.05
11017;BME280;54687;50.800;6.772;2023-10-13T01:05:55;92294.75;;;-144.06;27.01
11017;BME280;54687;50.800;6.772;2023-10-13T01:08:32;92271.50;;;-144.06;27.05
11017;BME280;54687;50.800;6.772;2023-10-13T01:11:07;92246.09;;;-144.06;26.77
11017;BME280;54687;50.800;6.772;2023-10-13T01:13:33;92201.69;;;-144.06;27.01
11017;BME280;54687;50.800;6.772;2023-10-13T01:16:02;92227.06;;;-144.06;26.94
11017;BME280;54687;50.800;6.772;2023-10-13T01:18:33;92292.66;;;-144.06;26.81
11017;BME280;54687;50.800;6.772;2023-10-13T01:21:08;92208.03;;;-144.06;26.94
11017;BME280;54687;50.800;6.772;2023-10-13T01:23:35;92201.69;;;-144.06;26.71
11017;BME280;54687;50.800;6.772;2023-10-13T01:26:04;92157.25;;;-144.06;26.61
11017;BME280;54687;50.800;6.772;2023-10-13T01:28:34;92148.81;;;-144.06;26.66
11017;BME280;54687;50.800;6.772;2023-10-13T01:31:10;92093.81;;;-144.06;26.65
11017;BME280;54687;50.800;6.772;2023-10-13T01:33:38;92125.53;;;-144.06;26.69
11017;BME280;54687;50.800;6.772;2023-10-13T01:36:04;92146.69;;;-144.06;26.65
11017;BME280;54687;50.800;6.772;2023-10-13T01:38:36;92148.81;;;-144.06;26.93
11017;BME280;54687;50.800;6.772;2023-10-13T01:41:06;92134.00;;;-144.06;26.62
11017;BME280;54687;50.800;6.772;2023-10-13T01:43:34;92138.22;;;-144.06;26.85
11017;BME280;54687;50.800;6.772;2023-10-13T01:46:02;92180.53;;;-144.06;26.87
11017;BME280;54687;50.800;6.772;2023-10-13T01:48:29;92123.41;;;-144.06;26.83
11017;BME280;54687;50.800;6.772;2023-10-13T01:50:58;92129.75;;;-144.06;26.64
11017;BME280;54687;50.800;6.772;2023-10-13T01:53:25;92229.19;;;-144.06;26.79
11017;BME280;54687;50.800;6.772;2023-10-13T01:55:55;92064.19;;;-144.06;26.69
11017;BME280;54687;50.800;6.772;2023-10-13T01:58:22;92134.00;;;-144.06;26.78
11017;BME280;54687;50.800;6.772;2023-10-13T02:00:51;92055.72;;;-144.06;26.81
11017;BME280;54687;50.800;6.772;2023-10-13T02:03:17;92062.06;;;-144.06;26.76
11017;BME280;54687;50.800;6.772;2023-10-13T02:05:48;92093.81;;;-144.06;26.70
11017;BME280;54687;50.800;6.772;2023-10-13T02:08:14;92053.63;;;-144.06;26.69
11017;BME280;54687;50.800;6.772;2023-10-13T02:10:48;92119.19;;;-144.06;26.94
11017;BME280;54687;50.800;6.772;2023-10-13T02:13:16;92106.50;;;-144.06;26.88
11017;BME280;54687;50.800;6.772;2023-10-13T02:15:44;92136.09;;;-144.06;26.94
11017;BME280;54687;50.800;6.772;2023-10-13T02:18:13;92136.09;;;-144.06;26.85
11017;BME280;54687;50.800;6.772;2023-10-13T02:20:46;92144.56;;;-144.06;26.67
11017;BME280;54687;50.800;6.772;2023-10-13T02:23:11;92114.97;;;-144.06;26.90
11017;BME280;54687;50.800;6.772;2023-10-13T02:25:38;92114.97;;;-144.06;27.01
11017;BME280;54687;50.800;6.772;2023-10-13T02:28:12;92121.31;;;-144.06;26.74
11017;BME280;54687;50.800;6.772;2023-10-13T02:30:43;92091.69;;;-144.06;26.89
11017;BME280;54687;50.800;6.772;2023-10-13T02:33:12;92055.72;;;-144.06;26.74
11017;BME280;54687;50.800;6.772;2023-10-13T02:35:38;92053.63;;;-144.06;26.96
11017;BME280;54687;50.800;6.772;2023-10-13T02:38:09;92059.97;;;-144.06;26.66
11017;BME280;54687;50.800;6.772;2023-10-13T02:40:38;92057.84;;;-144.06;26.98
11017;BME280;54687;50.800;6.772;2023-10-13T02:43:04;92062.06;;;-144.06;26.69
11017;BME280;54687;50.800;6.772;2023-10-13T02:45:31;92083.22;;;-144.06;26.94
11017;BME280;54687;50.800;6.772;2023-10-13T02:48:03;92009.19;;;-144.06;26.81
11017;BME280;54687;50.800;6.772;2023-10-13T02:50:40;92047.28;;;-144.06;26.81
11017;BME280;54687;50.800;6.772;2023-10-13T02:53:10;92085.34;;;-144.06;26.67
11017;BME280;54687;50.800;6.772;2023-10-13T02:55:38;92068.41;;;-144.06;26.74
11017;BME280;54687;50.800;6.772;2023-10-13T02:58:05;92064.19;;;-144.06;26.86
11017;BME280;54687;50.800;6.772;2023-10-13T03:00:31;92102.28;;;-144.06;27.05
11017;BME280;54687;50.800;6.772;2023-10-13T03:02:58;92114.97;;;-144.06;27.06
11017;BME280;54687;50.800;6.772;2023-10-13T03:05:25;92079.00;;;-144.06;26.81
11017;BME280;54687;50.800;6.772;2023-10-13T03:07:56;92043.03;;;-144.06;26.78
11017;BME280;54687;50.800;6.772;2023-10-13T03:10:24;92104.38;;;-144.06;27.04
11017;BME280;54687;50.800;6.772;2023-10-13T03:12:54;92059.97;;;-144.06;26.96
11017;BME280;54687;50.800;6.772;2023-10-13T03:15:20;92017.66;;;-144.06;26.84
11017;BME280;54687;50.800;6.772;2023-10-13T03:17:56;92004.97;;;-144.06;26.95
11017;BME280;54687;50.800;6.772;2023-10-13T03:20:25;91979.59;;;-144.06;26.87
11017;BME280;54687;50.800;6.772;2023-10-13T03:22:57;91949.97;;;-144.06;26.77
11017;BME280;54687;50.800;6.772;2023-10-13T03:25:24;91983.81;;;-144.06;26.93
11017;BME280;54687;50.800;6.772;2023-10-13T03:27:55;91977.47;;;-144.06;26.90
11017;BME280;54687;50.800;6.772;2023-10-13T03:30:30;91988.03;;;-144.06;26.87
11017;BME280;54687;50.800;6.772;2023-10-13T03:33:02;92026.13;;;-144.06;27.03
11017;BME280;54687;50.800;6.772;2023-10-13T03:35:34;91988.03;;;-144.06;26.76
11017;BME280;54687;50.800;6.772;2023-10-13T03:38:05;91958.44;;;-144.06;26.92
11017;BME280;54687;50.800;6.772;2023-10-13T03:40:40;91894.97;;;-144.06;26.69
11017;BME280;54687;50.800;6.772;2023-10-13T03:43:06;91869.59;;;-144.06;26.69
11017;BME280;54687;50.800;6.772;2023-10-13T03:45:36;91924.59;;;-144.06;26.77
11017;BME280;54687;50.800;6.772;2023-10-13T03:48:05;91914.00;;;-144.06;26.73
11017;BME280;54687;50.800;6.772;2023-10-13T03:50:37;91882.28;;;-144.06;26.68
11017;BME280;54687;50.800;6.772;2023-10-13T03:53:11;91852.69;;;-144.06;26.62
11017;BME280;54687;50.800;6.772;2023-10-13T03:55:38;91814.59;;;-144.06;26.75
11017;BME280;54687;50.800;6.772;2023-10-13T03:58:05;91850.56;;;-144.06;26.66
11017;BME280;54687;50.800;6.772;2023-10-13T04:00:32;91850.56;;;-144.06;26.74
11017;BME280;54687;50.800;6.772;2023-10-13T04:03:01;91873.81;;;-144.06;26.71
11017;BME280;54687;50.800;6.772;2023-10-13T04:05:36;91814.59;;;-144.06;26.71
11017;BME280;54687;50.800;6.772;2023-10-13T04:08:09;91827.28;;;-144.06;26.67
11017;BME280;54687;50.800;6.772;2023-10-13T04:11:05;91827.28;;;-144.06;26.74
11017;BME280;54687;50.800;6.772;2023-10-13T04:13:49;91852.69;;;-144.06;26.76
11017;BME280;54687;50.800;6.772;2023-10-13T04:16:48;91848.44;;;-144.06;26.74
11017;BME280;54687;50.800;6.772;2023-10-13T04:19:19;91835.75;;;-144.06;26.71
11017;BME280;54687;50.800;6.772;2023-10-13T04:21:52;91768.06;;;-144.06;26.76
11017;BME280;54687;50.800;6.772;2023-10-13T04:24:26;91780.75;;;-144.06;26.81
11017;BME280;54687;50.800;6.772;2023-10-13T04:27:11;91740.56;;;-144.06;26.61
11017;BME280;54687;50.800;6.772;2023-10-13T04:29:51;91742.69;;;-144.06;26.66
11017;BME280;54687;50.800;6.772;2023-10-13T04:32:36;91763.84;;;-144.06;26.65
11017;BME280;54687;50.800;6.772;2023-10-13T04:35:09;91780.75;;;-144.06;26.72
11017;BME280;54687;50.800;6.772;2023-10-13T04:37:45;91848.44;;;-144.06;26.97
11017;BME280;54687;50.800;6.772;2023-10-13T04:40:18;91837.88;;;-144.06;26.88
11017;BME280;54687;50.800;6.772;2023-10-13T04:42:50;91761.72;;;-144.06;26.76
11017;BME280;54687;50.800;6.772;2023-10-13T04:45:19;91738.47;;;-144.06;26.69
11017;BME280;54687;50.800;6.772;2023-10-13T04:48:04;91738.47;;;-144.06;26.78
11017;BME280;54687;50.800;6.772;2023-10-13T04:50:44;91734.22;;;-144.06;26.74
11017;BME280;54687;50.800;6.772;2023-10-13T04:53:13;91708.84;;;-144.06;26.80
11017;BME280;54687;50.800;6.772;2023-10-13T04:55:55;91721.53;;;-144.06;26.79
11017;BME280;54687;50.800;6.772;2023-10-13T04:58:55;91713.06;;;-144.06;26.66
11017;BME280;54687;50.800;6.772;2023-10-13T05:01:39;91628.47;;;-144.06;26.64
11017;BME280;54687;50.800;6.772;2023-10-13T05:04:36;91613.69;;;-144.06;26.63
11017;BME280;54687;50.800;6.772;2023-10-13T05:07:13;91615.78;;;-144.06;26.58
11017;BME280;54687;50.800;6.772;2023-10-13T05:09:58;91552.34;;;-144.06;26.57
11017;BME280;54687;50.800;6.772;2023-10-13T05:12:54;91603.09;;;-144.06;26.57
11017;BME280;54687;50.800;6.772;2023-10-13T05:15:49;91613.69;;;-144.06;26.59
11017;BME280;54687;50.800;6.772;2023-10-13T05:18:34;91584.06;;;-144.06;26.45
11017;BME280;54687;50.800;6.772;2023-10-13T05:21:19;91535.41;;;-144.06;26.45
11017;BME280;54687;50.800;6.772;2023-10-13T05:24:04;91569.25;;;-144.06;26.48
11017;BME280;54687;50.800;6.772;2023-10-13T05:26:51;91510.03;;;-144.06;26.37
11017;BME280;54687;50.800;6.772;2023-10-13T05:29:32;91550.22;;;-144.06;26.47
11017;BME280;54687;50.800;6.772;2023-10-13T05:32:17;91501.59;;;-144.06;26.52
11017;BME280;54687;50.800;6.772;2023-10-13T05:35:02;91543.88;;;-144.06;26.48
11017;BME280;54687;50.800;6.772;2023-10-13T05:37:47;91514.28;;;-144.06;26.44
11017;BME280;54687;50.800;6.772;2023-10-13T05:40:31;91459.28;;;-144.06;26.47
11017;BME280;54687;50.800;6.772;2023-10-13T05:43:16;91459.28;;;-144.06;26.42
11017;BME280;54687;50.800;6.772;2023-10-13T05:46:02;91429.69;;;-144.06;26.40
11017;BME280;54687;50.800;6.772;2023-10-13T05:48:43;91345.09;;;-144.06;26.35
11017;BME280;54687;50.800;6.772;2023-10-13T05:51:34;91336.63;;;-144.06;26.27
11017;BME280;54687;50.800;6.772;2023-10-13T05:54:10;91292.22;;;-144.06;26.19
11017;BME280;54687;50.800;6.772;2023-10-13T05:56:54;91241.47;;;-144.06;26.14
11017;BME280;54687;50.800;6.772;2023-10-13T05:59:40;91226.66;;;-144.06;26.34
11017;BME280;54687;50.800;6.772;2023-10-13T06:02:24;91400.06;;;-144.06;26.41
11017;BME280;54687;50.800;6.772;2023-10-13T06:05:10;91374.69;;;-144.06;26.27
11017;BME280;54687;50.800;6.772;2023-10-13T06:07:55;91290.09;;;-144.06;26.23
11017;BME280;54687;50.800;6.772;2023-10-13T06:10:40;91222.44;;;-144.06;26.21
11017;BME280;54687;50.800;6.772;2023-10-13T06:13:36;91182.25;;;-144.06;26.18
11017;BME280;54687;50.800;6.772;2023-10-13T06:16:21;91180.13;;;-144.06;26.17
11017;BME280;54687;50.800;6.772;2023-10-13T06:19:05;91146.28;;;-144.06;26.03
11017;BME280;54687;50.800;6.772;2023-10-13T06:21:51;91146.28;;;-144.06;26.11
11017;BME280;54687;50.800;6.772;2023-10-13T06:24:35;91040.56;;;-144.06;26.09
11017;BME280;54687;50.800;6.772;2023-10-13T06:27:19;90879.84;;;-144.06;25.92
11017;BME280;54687;50.800;6.772;2023-10-13T06:30:05;90901.00;;;-144.06;25.74
11017;BME280;54687;50.800;6.772;2023-10-13T06:32:33;90875.63;;;-144.06;25.97
11017;BME280;54687;50.800;6.772;2023-10-13T06:35:03;90782.59;;;-144.06;25.79
11017;BME280;54687;50.800;6.772;2023-10-13T06:37:33;90841.78;;;-144.06;25.85
11017;BME280;54687;50.800;6.772;2023-10-13T06:40:10;90765.69;;;-144.06;25.83
11017;BME280;54687;50.800;6.772;2023-10-13T06:42:47;90731.84;;;-144.06;25.74
11017;BME280;54687;50.800;6.772;2023-10-13T06:45:14;90655.72;;;-144.06;25.55
11017;BME280;54687;50.800;6.772;2023-10-13T06:47:43;90643.03;;;-144.06;25.62
11017;BME280;54687;50.800;6.772;2023-10-13T06:50:10;90592.28;;;-144.06;25.45
11017;BME280;54687;50.800;6.772;2023-10-13T06:52:41;90624.00;;;-144.06;25.44
11017;BME280;54687;50.800;6.772;2023-10-13T06:55:08;90583.84;;;-144.06;25.69
11017;BME280;54687;50.800;6.772;2023-10-13T06:57:36;90600.75;;;-144.06;25.72
11017;BME280;54687;50.800;6.772;2023-10-13T07:00:10;90585.94;;;-144.06;25.71
11017;BME280;54687;50.800;6.772;2023-10-13T07:02:46;90571.16;;;-144.06;25.66
11017;BME280;54687;50.800;6.772;2023-10-13T07:05:13;90672.63;;;-144.06;25.51
11017;BME280;54687;50.800;6.772;2023-10-13T07:07:40;90757.22;;;-144.06;25.66
11017;BME280;54687;50.800;6.772;2023-10-13T07:10:08;90786.81;;;-144.06;25.76
11017;BME280;54687;50.800;6.772;2023-10-13T07:12:35;90763.56;;;-144.06;25.66
11017;BME280;54687;50.800;6.772;2023-10-13T07:15:03;90702.25;;;-144.06;25.88
11017;BME280;54687;50.800;6.772;2023-10-13T07:17:30;90659.94;;;-144.06;25.58
11017;BME280;54687;50.800;6.772;2023-10-13T07:20:06;90655.72;;;-144.06;25.61
11017;BME280;54687;50.800;6.772;2023-10-13T07:22:40;90666.31;;;-144.06;25.66
11017;BME280;54687;50.800;6.772;2023-10-13T07:25:11;90554.22;;;-144.06;25.81
11017;BME280;54687;50.800;6.772;2023-10-13T07:27:49;90501.38;;;-144.06;25.38
11017;BME280;54687;50.800;6.772;2023-10-13T07:30:15;90482.34;;;-144.06;25.39
11017;BME280;54687;50.800;6.772;2023-10-13T07:32:45;90507.72;;;-144.06;25.44
11017;BME280;54687;50.800;6.772;2023-10-13T07:35:15;90543.66;;;-144.06;25.43
11017;BME280;54687;50.800;6.772;2023-10-13T07:37:43;90609.22;;;-144.06;25.49
11017;BME280;54687;50.800;6.772;2023-10-13T07:40:10;90702.25;;;-144.06;25.34
11017;BME280;54687;50.800;6.772;2023-10-13T07:43:05;90659.94;;;-144.06;25.49
11017;BME280;54687;50.800;6.772;2023-10-13T07:45:36;90691.66;;;-144.06;25.27
11017;BME280;54687;50.800;6.772;2023-10-13T07:48:04;90666.31;;;-144.06;25.41
11017;BME280;54687;50.800;6.772;2023-10-13T07:50:39;90630.34;;;-144.06;25.38
11017;BME280;54687;50.800;6.772;2023-10-13T07:53:06;90592.28;;;-144.06;25.52
11017;BME280;54687;50.800;6.772;2023-10-13T07:55:45;90478.13;;;-144.06;25.06
11017;BME280;54687;50.800;6.772;2023-10-13T07:58:12;90456.97;;;-144.06;25.09
11017;BME280;54687;50.800;6.772;2023-10-13T08:00:39;90499.25;;;-144.06;24.90
11017;BME280;54687;50.800;6.772;2023-10-13T08:03:13;90410.47;;;-144.06;25.17
11017;BME280;54687;50.800;6.772;2023-10-13T08:06:00;90427.38;;;-144.06;24.86
11017;BME280;54687;50.800;6.772;2023-10-13T08:08:33;90714.94;;;-144.06;24.78
11017;BME280;54687;50.800;6.772;2023-10-13T08:11:04;90738.19;;;-144.06;24.85
11017;BME280;54687;50.800;6.772;2023-10-13T08:13:37;90930.59;;;-144.06;24.80
11017;BME280;54687;50.800;6.772;2023-10-13T08:16:05;91097.66;;;-144.06;24.80
11017;BME280;54687;50.800;6.772;2023-10-13T08:18:35;91239.34;;;-144.06;24.63
11017;BME280;54687;50.800;6.772;2023-10-13T08:21:08;91178.03;;;-144.06;24.93
11017;BME280;54687;50.800;6.772;2023-10-13T08:23:41;91268.94;;;-144.06;24.78
11017;BME280;54687;50.800;6.772;2023-10-13T08:26:32;91199.16;;;-144.06;24.92
11017;BME280;54687;50.800;6.772;2023-10-13T08:29:16;91237.22;;;-144.06;24.70
11017;BME280;54687;50.800;6.772;2023-10-13T08:32:00;91252.03;;;-144.06;24.66
11017;BME280;54687;50.800;6.772;2023-10-13T08:34:48;91218.19;;;-144.06;24.46
11017;BME280;54687;50.800;6.772;2023-10-13T08:37:37;91112.47;;;-144.06;24.76
11017;BME280;54687;50.800;6.772;2023-10-13T08:40:26;91222.44;;;-144.06;24.75
11017;BME280;54687;50.800;6.772;2023-10-13T08:43:11;91180.13;;;-144.06;24.68
11017;BME280;54687;50.800;6.772;2023-10-13T08:45:39;91091.31;;;-144.06;24.65
11017;BME280;54687;50.800;6.772;2023-10-13T08:48:23;91032.09;;;-144.06;24.63
11017;BME280;54687;50.800;6.772;2023-10-13T08:50:57;91133.59;;;-144.06;24.48
11017;BME280;54687;50.800;6.772;2023-10-13T08:53:36;91188.59;;;-144.06;24.53
11017;BME280;54687;50.800;6.772;2023-10-13T08:56:12;91142.06;;;-144.06;24.46
11017;BME280;54687;50.800;6.772;2023-10-13T08:58:44;91068.06;;;-144.06;24.26
11017;BME280;54687;50.800;6.772;2023-10-13T09:01:30;91264.72;;;-144.06;24.44
11017;BME280;54687;50.800;6.772;2023-10-13T09:04:15;91082.84;;;-144.06;24.31
11017;BME280;54687;50.800;6.772;2023-10-13T09:06:49;91133.59;;;-144.06;24.52
11017;BME280;54687;50.800;6.772;2023-10-13T09:09:46;91099.78;;;-144.06;24.42
11017;BME280;54687;50.800;6.772;2023-10-13T09:12:37;90983.47;;;-144.06;24.77
11017;BME280;54687;50.800;6.772;2023-10-13T09:15:07;90884.09;;;-144.06;24.58
11017;BME280;54687;50.800;6.772;2023-10-13T09:17:45;90837.56;;;-144.06;24.29
11017;BME280;54687;50.800;6.772;2023-10-13T09:20:14;90725.50;;;-144.06;24.23
11017;BME280;54687;50.800;6.772;2023-10-13T09:22:57;90755.09;;;-144.06;24.36
11017;BME280;54687;50.800;6.772;2023-10-13T09:25:35;90846.03;;;-144.06;24.18
11017;BME280;54687;50.800;6.772;2023-10-13T09:28:03;90896.78;;;-144.06;24.55
11017;BME280;54687;50.800;6.772;2023-10-13T09:30:44;90772.00;;;-144.06;24.24
11017;BME280;54687;50.800;6.772;2023-10-13T09:33:10;90822.75;;;-144.06;24.43
11017;BME280;54687;50.800;6.772;2023-10-13T09:35:43;90757.22;;;-144.06;24.05
11017;BME280;54687;50.800;6.772;2023-10-13T09:38:14;90877.75;;;-144.06;24.27
11017;BME280;54687;50.800;6.772;2023-10-13T09:40:43;90571.16;;;-144.06;24.39
11017;BME280;54687;50.800;6.772;2023-10-13T09:43:16;90598.63;;;-144.06;24.03
11017;BME280;54687;50.800;6.772;2023-10-13T09:45:46;90626.13;;;-144.06;23.96
11017;BME280;54687;50.800;6.772;2023-10-13T09:48:31;90871.41;;;-144.06;24.07
11017;BME280;54687;50.800;6.772;2023-10-13T09:51:00;90450.63;;;-144.06;24.01
11017;BME280;54687;50.800;6.772;2023-10-13T09:53:27;90156.75;;;-144.06;24.02
11017;BME280;54687;50.800;6.772;2023-10-13T09:56:00;89890.41;;;-144.06;23.48
11017;BME280;54687;50.800;6.772;2023-10-13T09:58:42;89848.13;;;-144.06;23.47
11017;BME280;54687;50.800;6.772;2023-10-13T10:01:24;89810.06;;;-144.06;23.35
11017;BME280;54687;50.800;6.772;2023-10-13T10:04:07;89884.06;;;-144.06;23.37
11017;BME280;54687;50.800;6.772;2023-10-13T10:06:35;90055.28;;;-144.06;23.67
11017;BME280;54687;50.800;6.772;2023-10-13T10:09:05;90156.75;;;-144.06;23.50
11017;BME280;54687;50.800;6.772;2023-10-13T10:11:52;90093.34;;;-144.06;23.53
11017;BME280;54687;50.800;6.772;2023-10-13T10:14:28;89977.06;;;-144.06;23.65
11017;BME280;54687;50.800;6.772;2023-10-13T10:17:05;90027.81;;;-144.06;23.47
11017;BME280;54687;50.800;6.772;2023-10-13T10:19:45;89708.59;;;-144.06;23.38
11017;BME280;54687;50.800;6.772;2023-10-13T10:22:13;89865.03;;;-144.06;23.49
11017;BME280;54687;50.800;6.772;2023-10-13T10:24:43;90106.03;;;-144.06;23.50
11017;BME280;54687;50.800;6.772;2023-10-13T10:27:11;89911.53;;;-144.06;23.59
11017;BME280;54687;50.800;6.772;2023-10-13T10:29:39;90042.59;;;-144.06;23.64
11017;BME280;54687;50.800;6.772;2023-10-13T10:32:12;89998.22;;;-144.06;23.42
11017;BME280;54687;50.800;6.772;2023-10-13T10:34:39;89858.69;;;-144.06;23.35
11017;BME280;54687;50.800;6.772;2023-10-13T10:37:07;89949.59;;;-144.06;23.61
11017;BME280;54687;50.800;6.772;2023-10-13T10:39:35;89981.31;;;-144.06;23.38
11017;BME280;54687;50.800;6.772;2023-10-13T10:42:12;90224.41;;;-144.06;23.74
11017;BME280;54687;50.800;6.772;2023-10-13T10:44:46;89987.66;;;-144.06;23.64
11017;BME280;54687;50.800;6.772;2023-10-13T10:47:14;90186.38;;;-144.06;23.47
11017;BME280;54687;50.800;6.772;2023-10-13T10:49:45;89951.72;;;-144.06;23.46
11017;BME280;54687;50.800;6.772;2023-10-13T10:52:17;90076.44;;;-144.06;23.30
11017;BME280;54687;50.800;6.772;2023-10-13T10:54:45;90046.84;;;-144.06;23.58
11017;BME280;54687;50.800;6.772;2023-10-13T10:57:18;89886.19;;;-144.06;23.29
11017;BME280;54687;50.800;6.772;2023-10-13T10:59:46;89869.25;;;-144.06;23.33
11017;BME280;54687;50.800;6.772;2023-10-13T11:02:17;89767.78;;;-144.06;23.29
11017;BME280;54687;50.800;6.772;2023-10-13T11:04:52;89858.69;;;-144.06;23.27
11017;BME280;54687;50.800;6.772;2023-10-13T11:07:22;90055.28;;;-144.06;23.13
11017;BME280;54687;50.800;6.772;2023-10-13T11:09:49;89860.81;;;-144.06;23.28
11017;BME280;54687;50.800;6.772;2023-10-13T11:12:19;89693.81;;;-144.06;23.02
11017;BME280;54687;50.800;6.772;2023-10-13T11:15:02;89689.59;;;-144.06;23.09
11017;BME280;54687;50.800;6.772;2023-10-13T11:17:34;89357.75;;;-144.06;23.02
11017;BME280;54687;50.800;6.772;2023-10-13T11:20:17;89258.41;;;-144.06;22.85
11017;BME280;54687;50.800;6.772;2023-10-13T11:22:51;89607.16;;;-144.06;22.97
11017;BME280;54687;50.800;6.772;2023-10-13T11:25:23;89793.16;;;-144.06;23.11
11017;BME280;54687;50.800;6.772;2023-10-13T11:27:57;89924.22;;;-144.06;23.24
11017;BME280;54687;50.800;6.772;2023-10-13T11:30:26;89524.72;;;-144.06;22.84
11017;BME280;54687;50.800;6.772;2023-10-13T11:32:58;89569.09;;;-144.06;23.11
11017;BME280;54687;50.800;6.772;2023-10-13T11:35:25;89710.72;;;-144.06;23.05
11017;BME280;54687;50.800;6.772;2023-10-13T11:37:55;89636.75;;;-144.06;23.01
11017;BME280;54687;50.800;6.772;2023-10-13T11:40:29;89814.31;;;-144.06;23.01
11017;BME280;54687;50.800;6.772;2023-10-13T11:43:10;89547.97;;;-144.06;22.96
11017;BME280;54687;50.800;6.772;2023-10-13T11:45:40;89581.78;;;-144.06;22.79
11017;BME280;54687;50.800;6.772;2023-10-13T11:48:26;89862.91;;;-144.06;23.06
11017;BME280;54687;50.800;6.772;2023-10-13T11:51:00;89848.13;;;-144.06;23.16
11017;BME280;54687;50.800;6.772;2023-10-13T11:53:31;89928.44;;;-144.06;23.29
11017;BME280;54687;50.800;6.772;2023-10-13T11:55:58;89772.03;;;-144.06;23.25
11017;BME280;54687;50.800;6.772;2023-10-13T11:58:26;89647.31;;;-144.06;23.02
11017;BME280;54687;50.800;6.772;2023-10-13T12:00:54;89814.31;;;-144.06;23.07
11017;BME280;54687;50.800;6.772;2023-10-13T12:03:33;89960.16;;;-144.06;23.18
11017;BME280;54687;50.800;6.772;2023-10-13T12:06:18;89996.09;;;-144.06;23.18
11017;BME280;54687;50.800;6.772;2023-10-13T12:08:48;89898.84;;;-144.06;23.30
11017;BME280;54687;50.800;6.772;2023-10-13T12:11:18;89924.22;;;-144.06;22.86
11017;BME280;54687;50.800;6.772;2023-10-13T12:13:58;90249.78;;;-144.06;23.27
11017;BME280;54687;50.800;6.772;2023-10-13T12:16:36;90347.03;;;-144.06;23.12
11017;BME280;54687;50.800;6.772;2023-10-13T12:19:03;90363.94;;;-144.06;23.36
11017;BME280;54687;50.800;6.772;2023-10-13T12:21:35;90368.19;;;-144.06;23.03
11017;BME280;54687;50.800;6.772;2023-10-13T12:24:03;90630.34;;;-144.06;23.08
11017;BME280;54687;50.800;6.772;2023-10-13T12:26:36;90653.59;;;-144.06;23.14
11017;BME280;54687;50.800;6.772;2023-10-13T12:29:08;91049.03;;;-144.06;23.30
11017;BME280;54687;50.800;6.772;2023-10-13T12:31:47;90750.88;;;-144.06;23.35
11017;BME280;54687;50.800;6.772;2023-10-13T12:34:26;90653.59;;;-144.06;23.06
11017;BME280;54687;50.800;6.772;2023-10-13T12:37:12;90617.66;;;-144.06;23.17
11017;BME280;54687;50.800;6.772;2023-10-13T12:40:02;90414.69;;;-144.06;22.88
11017;BME280;54687;50.800;6.772;2023-10-13T12:42:47;90778.38;;;-144.06;23.19
11017;BME280;54687;50.800;6.772;2023-10-13T12:45:32;90934.84;;;-144.06;23.39
11017;BME280;54687;50.800;6.772;2023-10-13T12:48:17;90727.63;;;-144.06;23.40
11017;BME280;54687;50.800;6.772;2023-10-13T12:51:01;90588.06;;;-144.06;23.30
11017;BME280;54687;50.800;6.772;2023-10-13T12:53:45;90774.13;;;-144.06;23.26
11017;BME280;54687;50.800;6.772;2023-10-13T12:56:12;90545.78;;;-144.06;23.39
11017;BME280;54687;50.800;6.772;2023-10-13T12:58:39;90748.75;;;-144.06;23.29
11017;BME280;54687;50.800;6.772;2023-10-13T13:01:07;90714.94;;;-144.06;23.40
11017;BME280;54687;50.800;6.772;2023-10-13T13:03:33;90566.91;;;-144.06;23.10
11017;BME280;54687;50.800;6.772;2023-10-13T13:06:00;90710.69;;;-144.06;23.04
11017;BME280;54687;50.800;6.772;2023-10-13T13:08:32;90731.84;;;-144.06;23.26
11017;BME280;54687;50.800;6.772;2023-10-13T13:11:00;90706.47;;;-144.06;23.18
11017;BME280;54687;50.800;6.772;2023-10-13T13:13:28;90949.63;;;-144.06;23.35
11017;BME280;54687;50.800;6.772;2023-10-13T13:15:54;90786.81;;;-144.06;23.44
11017;BME280;54687;50.800;6.772;2023-10-13T13:18:23;90651.50;;;-144.06;23.06